16FA weather

Public forecast

Using degrees Fahrenheit for public forecast. Weather courtesy of forecast.io.

Closest aviation weather report (METAR) to Little Deer Airport

Closest report is Immokalee Regional Airport, 31.1 nm (57.5 km) NW. Retrieved 2020/08/15 13:35 UTC (3 minutes ago):

KIMM 151335Z AUTO VRB03KT 10SM CLR 31/25 A2999 RMK AO2 LTG DSNT SW-NW

Closest aviation forecast (TAF) to Little Deer Airport

Closest forecast is Miami Executive Airport, 40.0 nm (74.1 km) SE. Retrieved 2020/08/15 12:36 UTC (1 hour ago):

TAF KTMB 151135Z 1512/1612 VRB03KT P6SM FEW030 FM151400 14008KT P6SM SCT035 FM160200 VRB03KT P6SM FEW030